createdAt,value
2024-04-05T14:28:09.790Z,100187.84
2024-04-05T14:33:14.009Z,100209.94
2024-04-05T14:38:18.389Z,100215.94
2024-04-05T14:43:24.893Z,100220.44
2024-04-05T14:48:29.180Z,100216.84
2024-04-05T14:53:34.717Z,100241.13
2024-04-05T14:58:41.097Z,100246.34
2024-04-05T15:03:45.411Z,100255.56
2024-04-05T15:08:53.581Z,100257.63
2024-04-05T15:14:01.359Z,100239.44
2024-04-05T15:19:05.636Z,100248.75
2024-04-05T15:24:10.268Z,100260.59
2024-04-05T15:29:16.753Z,100255.03
2024-04-05T15:34:20.847Z,100247.00
2024-04-05T15:39:26.321Z,100246.94
2024-04-05T15:44:35.941Z,100258.50
2024-04-05T15:49:40.780Z,100264.91
2024-04-05T15:54:51.159Z,100267.56
2024-04-05T15:59:57.640Z,100276.19
2024-04-05T16:05:02.156Z,100282.78
2024-04-05T16:10:07.896Z,100286.03
2024-04-05T16:15:14.055Z,100295.06
2024-04-05T16:20:18.648Z,100300.84
2024-04-05T16:25:22.761Z,100309.56
2024-04-05T16:30:30.719Z,100310.50
2024-04-05T16:35:34.796Z,100315.16
2024-04-05T16:40:39.391Z,100327.63
2024-04-05T16:45:46.255Z,100337.44
2024-04-05T16:50:50.539Z,100332.75
2024-04-05T16:55:55.066Z,100347.09
2024-04-05T17:01:01.372Z,100330.44
2024-04-05T17:06:09.866Z,100333.78
2024-04-05T17:11:15.340Z,100340.69
2024-04-05T17:16:23.435Z,100339.66
2024-04-05T17:21:44.931Z,100347.25
2024-04-05T17:26:52.741Z,100357.66
2024-04-05T17:32:05.044Z,100362.59
2024-04-05T17:37:10.038Z,100369.59
2024-04-05T17:42:14.248Z,100367.59
2024-04-05T17:47:20.183Z,100375.94
2024-04-05T17:52:24.524Z,100382.66
2024-04-05T17:57:28.717Z,100382.34
2024-04-05T18:02:36.676Z,100386.44
2024-04-05T18:07:41.205Z,100397.53
2024-04-05T18:12:45.325Z,100407.38
2024-04-05T18:17:51.960Z,100418.84
2024-04-05T18:22:56.161Z,100418.34
2024-04-05T18:28:00.418Z,100420.31
2024-04-05T18:33:07.850Z,100423.97
2024-04-05T18:38:12.889Z,100434.66
2024-04-05T18:43:20.732Z,100442.63
2024-04-05T18:48:27.194Z,100450.63
2024-04-05T18:53:31.554Z,100462.16
2024-04-05T18:58:37.258Z,100455.63
2024-04-05T19:03:58.945Z,100457.66
2024-04-05T19:09:25.330Z,100465.97
2024-04-05T19:14:31.342Z,100488.16
2024-04-05T19:19:38.068Z,100494.63
2024-04-05T19:24:42.696Z,100491.53
2024-04-05T19:29:48.467Z,100496.94
2024-04-05T19:34:56.050Z,100509.44
2024-04-05T19:40:11.719Z,100515.09
2024-04-05T19:45:20.290Z,100514.72
2024-04-05T19:50:28.082Z,100517.69
2024-04-05T19:55:34.921Z,100527.47
2024-04-05T20:00:39.449Z,100524.88
2024-04-05T20:05:49.449Z,100529.97
2024-04-05T20:10:58.862Z,100539.25
2024-04-05T20:16:05.343Z,100545.03
2024-04-05T20:21:14.684Z,100544.81
2024-04-05T20:26:21.052Z,100531.69
2024-04-05T20:31:38.497Z,100536.63
2024-04-05T20:36:46.742Z,100541.56
2024-04-05T20:41:51.068Z,100545.78
2024-04-05T20:46:55.375Z,100541.25
2024-04-05T20:52:02.486Z,100546.16
2024-04-05T20:57:07.511Z,100548.66
2024-04-05T21:02:11.693Z,100549.41
2024-04-05T21:07:17.742Z,100553.56
2024-04-05T21:12:21.998Z,100554.22
2024-04-05T21:17:26.064Z,100557.34
2024-04-05T21:22:33.018Z,100565.81
2024-04-05T21:27:37.050Z,100570.06
2024-04-05T21:32:41.385Z,100565.72
2024-04-05T21:37:47.520Z,100566.56
2024-04-05T21:42:51.655Z,100572.66
2024-04-05T21:47:56.082Z,100585.66
2024-04-05T21:53:02.806Z,100585.66
2024-04-05T21:58:07.141Z,100587.53
2024-04-05T22:03:11.390Z,100594.50
2024-04-05T22:08:18.733Z,100588.53
2024-04-05T22:13:22.839Z,100577.34
2024-04-05T22:18:27.733Z,100586.03
2024-04-05T22:23:33.747Z,100584.25
2024-04-05T22:28:37.887Z,100586.88
2024-04-05T22:33:42.031Z,100594.75
2024-04-05T22:38:48.620Z,100606.94
2024-04-05T22:43:52.601Z,100607.09
2024-04-05T22:48:56.895Z,100603.88
2024-04-05T22:54:04.401Z,100610.13
2024-04-05T22:59:09.540Z,100608.56
2024-04-05T23:04:14.005Z,100607.94
2024-04-05T23:09:20.056Z,100604.63
2024-04-05T23:14:24.189Z,100594.41
2024-04-05T23:19:30.227Z,100594.50
2024-04-05T23:24:36.159Z,100596.31
2024-04-05T23:29:40.468Z,100604.31
